createdAt,value
2019-04-16T00:02:23.828Z,25.80
2019-04-16T00:05:13.183Z,28.13
2019-04-16T00:08:09.752Z,31.87
2019-04-16T00:10:47.900Z,26.27
2019-04-16T00:13:32.260Z,32.67
2019-04-16T00:16:01.872Z,34.40
2019-04-16T00:18:32.199Z,31.27
2019-04-16T00:21:26.957Z,35.37
2019-04-16T00:24:21.286Z,34.60
2019-04-16T00:26:57.939Z,35.67
2019-04-16T00:29:25.184Z,36.80
2019-04-16T00:32:08.028Z,33.77
2019-04-16T00:34:36.227Z,37.43
2019-04-16T00:37:07.668Z,34.23
2019-04-16T00:39:37.976Z,37.70
2019-04-16T00:42:08.283Z,31.67
2019-04-16T00:44:39.116Z,36.50
2019-04-16T00:47:09.372Z,34.63
2019-04-16T00:49:40.698Z,40.63
2019-04-16T00:52:11.116Z,38.10
2019-04-16T00:54:42.351Z,33.67
2019-04-16T00:57:17.652Z,36.40
2019-04-16T00:59:45.546Z,33.80
2019-04-16T01:02:16.452Z,35.27
2019-04-16T01:04:47.155Z,36.90
2019-04-16T01:07:17.538Z,30.50
2019-04-16T01:09:47.571Z,29.67
2019-04-16T01:12:18.533Z,30.83
2019-04-16T01:14:49.111Z,26.03
2019-04-16T01:17:19.638Z,33.37
2019-04-16T01:19:50.397Z,28.53
2019-04-16T01:22:20.655Z,29.40
2019-04-16T01:24:52.516Z,34.07
2019-04-16T01:27:32.540Z,27.60
2019-04-16T01:30:05.984Z,29.17
2019-04-16T01:32:49.264Z,27.27
2019-04-16T01:35:51.711Z,39.47
2019-04-16T01:38:29.070Z,28.87
2019-04-16T01:41:03.652Z,29.40
2019-04-16T01:43:35.613Z,27.93
2019-04-16T01:46:06.192Z,26.53
2019-04-16T01:48:38.674Z,28.50
2019-04-16T01:51:08.170Z,27.83
2019-04-16T01:53:41.007Z,28.33
2019-04-16T01:56:11.083Z,27.60
2019-04-16T01:58:41.356Z,27.27
2019-04-16T02:01:12.422Z,30.63
2019-04-16T02:03:42.557Z,26.37
2019-04-16T02:06:13.046Z,26.20
2019-04-16T02:08:43.346Z,29.90
2019-04-16T02:11:16.548Z,24.93
2019-04-16T02:13:46.963Z,29.40
2019-04-16T02:16:16.938Z,28.23
2019-04-16T02:18:47.005Z,30.83
2019-04-16T02:21:18.609Z,22.90
2019-04-16T02:23:49.206Z,26.67
2019-04-16T02:26:20.582Z,30.20
2019-04-16T02:28:52.043Z,25.80
2019-04-16T02:31:21.916Z,29.07
2019-04-16T02:33:52.471Z,28.93
2019-04-16T02:36:22.084Z,22.23
2019-04-16T02:38:53.248Z,21.80
2019-04-16T02:41:24.680Z,27.07
2019-04-16T02:43:55.835Z,26.40
2019-04-16T02:46:30.346Z,24.53
2019-04-16T02:48:59.155Z,26.30
2019-04-16T02:51:41.288Z,30.47
2019-04-16T02:54:21.258Z,24.87
2019-04-16T02:57:13.433Z,28.10
2019-04-16T02:59:47.320Z,20.80
2019-04-16T03:02:34.267Z,21.23
2019-04-16T03:05:29.863Z,27.00
2019-04-16T03:08:04.520Z,23.77
2019-04-16T03:10:35.239Z,22.83
2019-04-16T03:13:06.315Z,22.13
2019-04-16T03:15:50.333Z,21.00
2019-04-16T03:18:23.826Z,25.63
2019-04-16T03:20:55.608Z,21.40
2019-04-16T03:23:25.238Z,20.37
2019-04-16T03:25:55.248Z,18.57
2019-04-16T03:28:27.418Z,23.30
2019-04-16T03:30:58.009Z,26.33
2019-04-16T03:33:27.595Z,24.27
2019-04-16T03:35:58.630Z,19.50
2019-04-16T03:38:28.670Z,24.57
2019-04-16T03:40:58.599Z,22.30
2019-04-16T03:43:29.518Z,22.67
2019-04-16T03:45:59.967Z,24.40
2019-04-16T03:48:29.864Z,23.10
2019-04-16T03:51:00.553Z,22.70
2019-04-16T03:53:31.661Z,21.93
2019-04-16T03:56:01.251Z,23.03
2019-04-16T03:58:31.460Z,24.27
2019-04-16T04:01:01.503Z,20.80
2019-04-16T04:03:31.726Z,21.70
2019-04-16T04:06:03.515Z,22.77
2019-04-16T04:08:34.157Z,24.13
2019-04-16T04:11:09.148Z,24.47
2019-04-16T04:13:36.656Z,19.40
2019-04-16T04:16:06.155Z,23.73
2019-04-16T04:18:36.748Z,24.23
2019-04-16T04:21:06.931Z,17.80
2019-04-16T04:23:37.229Z,21.50
2019-04-16T04:26:08.911Z,23.67
2019-04-16T04:28:38.531Z,22.10
2019-04-16T04:31:09.279Z,23.27
2019-04-16T04:33:41.592Z,23.63
2019-04-16T04:36:11.219Z,21.30
2019-04-16T04:38:41.998Z,22.47
2019-04-16T04:41:12.041Z,19.23
2019-04-16T04:43:43.048Z,23.17
2019-04-16T04:46:14.889Z,21.77
2019-04-16T04:48:47.436Z,20.80
2019-04-16T04:51:17.786Z,22.40
2019-04-16T04:53:50.361Z,25.63
2019-04-16T04:56:20.082Z,26.53
2019-04-16T04:58:51.159Z,16.97
2019-04-16T05:01:21.220Z,21.13
2019-04-16T05:04:22.016Z,17.53
2019-04-16T05:06:54.427Z,21.60
2019-04-16T05:09:25.050Z,18.23
2019-04-16T05:11:54.715Z,20.87
2019-04-16T05:14:27.424Z,18.63
2019-04-16T05:16:58.779Z,21.10
2019-04-16T05:19:29.191Z,17.60
2019-04-16T05:21:59.995Z,20.93
2019-04-16T05:24:30.685Z,19.33
2019-04-16T05:27:00.827Z,16.40
2019-04-16T05:29:30.900Z,18.17
2019-04-16T05:32:00.749Z,20.10
2019-04-16T05:34:30.745Z,19.17
2019-04-16T05:37:01.175Z,24.03
2019-04-16T05:39:31.784Z,23.30
2019-04-16T05:42:03.141Z,23.53
2019-04-16T05:44:34.196Z,20.33
2019-04-16T05:47:04.911Z,22.40
2019-04-16T05:49:35.256Z,20.30
2019-04-16T05:52:07.743Z,22.80
2019-04-16T05:54:56.315Z,21.03
2019-04-16T05:57:28.782Z,16.47
2019-04-16T05:59:58.391Z,16.57
2019-04-16T06:02:39.759Z,19.67
2019-04-16T06:05:09.898Z,19.30
2019-04-16T06:07:40.175Z,15.67
2019-04-16T06:10:17.110Z,15.27
2019-04-16T06:13:01.014Z,20.10
2019-04-16T06:15:38.707Z,17.20
2019-04-16T06:18:21.591Z,19.67
2019-04-16T06:21:07.165Z,16.20
2019-04-16T06:24:03.378Z,23.70
2019-04-16T06:26:53.732Z,28.90
2019-04-16T06:30:02.347Z,16.50
2019-04-16T06:32:51.749Z,15.87
2019-04-16T06:35:43.429Z,15.47
2019-04-16T06:38:22.524Z,14.50
2019-04-16T06:41:10.707Z,15.50
2019-04-16T06:43:44.420Z,14.70
2019-04-16T06:46:40.508Z,14.60
2019-04-16T06:49:35.737Z,15.43
2019-04-16T06:52:26.070Z,15.63
2019-04-16T06:55:18.042Z,11.20
2019-04-16T06:58:17.648Z,11.03
2019-04-16T07:01:06.925Z,13.83
2019-04-16T07:03:59.682Z,12.17
2019-04-16T07:06:48.694Z,11.80
2019-04-16T07:09:45.682Z,12.13
2019-04-16T07:12:24.880Z,10.87
2019-04-16T07:14:55.464Z,6.63
2019-04-16T07:17:26.050Z,8.33
2019-04-16T07:19:56.314Z,15.83
2019-04-16T07:22:28.029Z,9.37
2019-04-16T07:25:03.843Z,11.40
2019-04-16T07:27:39.936Z,8.80
2019-04-16T07:30:21.253Z,8.80
2019-04-16T07:33:15.918Z,7.30
2019-04-16T07:36:16.732Z,11.03
2019-04-16T07:39:06.106Z,7.57
2019-04-16T07:42:07.781Z,9.83
2019-04-16T07:44:39.275Z,11.83
2019-04-16T07:47:19.668Z,8.60
2019-04-16T07:50:00.475Z,10.27
2019-04-16T07:52:59.588Z,7.47
2019-04-16T07:55:42.691Z,11.07
2019-04-16T07:58:13.036Z,10.43
2019-04-16T08:00:43.124Z,11.20
2019-04-16T08:03:15.085Z,8.87
2019-04-16T08:05:44.974Z,9.13
2019-04-16T08:08:15.897Z,11.50
2019-04-16T08:10:46.753Z,5.90
2019-04-16T08:13:20.362Z,6.50
2019-04-16T08:15:50.570Z,11.03
2019-04-16T08:18:20.904Z,9.80
2019-04-16T08:21:01.126Z,9.50
2019-04-16T08:23:38.924Z,11.43
2019-04-16T08:26:13.013Z,8.53
2019-04-16T08:28:42.186Z,11.90
2019-04-16T08:31:18.551Z,8.90
2019-04-16T08:33:48.387Z,7.43
2019-04-16T08:36:21.633Z,6.70
2019-04-16T08:38:52.401Z,9.67
2019-04-16T08:41:24.304Z,9.80
2019-04-16T08:43:59.690Z,9.93
2019-04-16T08:46:43.416Z,8.53
2019-04-16T08:49:15.316Z,6.80
2019-04-16T08:51:46.786Z,6.93
2019-04-16T08:54:19.501Z,8.03
2019-04-16T08:56:49.858Z,8.90
2019-04-16T08:59:20.509Z,6.10
2019-04-16T09:02:00.795Z,7.77
2019-04-16T09:04:34.110Z,6.07
2019-04-16T09:07:41.071Z,4.57
2019-04-16T09:10:20.280Z,6.67
2019-04-16T09:13:02.419Z,5.40
2019-04-16T09:15:29.783Z,4.77
2019-04-16T09:18:16.541Z,5.23
2019-04-16T09:23:34.225Z,7.17
2019-04-16T09:26:23.681Z,4.40
2019-04-16T09:29:17.571Z,6.97
2019-04-16T09:32:15.367Z,5.20
2019-04-16T09:35:09.277Z,4.30
2019-04-16T09:37:43.267Z,5.17
2019-04-16T09:40:30.815Z,4.37
2019-04-16T09:43:15.837Z,4.13
2019-04-16T09:45:37.181Z,6.20
2019-04-16T09:48:06.166Z,6.03
2019-04-16T09:50:36.356Z,5.10
2019-04-16T09:53:07.022Z,5.60
2019-04-16T09:55:37.038Z,5.50
2019-04-16T09:58:16.406Z,5.43
2019-04-16T10:00:48.876Z,6.87
2019-04-16T10:03:34.543Z,7.30
2019-04-16T10:06:06.809Z,3.70
2019-04-16T10:08:37.467Z,4.30
2019-04-16T10:11:09.402Z,4.60
2019-04-16T10:13:40.459Z,4.80
2019-04-16T10:16:13.567Z,4.60
2019-04-16T10:18:42.743Z,9.20
2019-04-16T10:21:20.345Z,6.60
2019-04-16T10:24:13.162Z,5.07
2019-04-16T10:26:46.431Z,5.10
2019-04-16T10:29:18.189Z,4.93
2019-04-16T10:31:48.459Z,5.87
2019-04-16T10:34:19.133Z,5.30
2019-04-16T10:36:51.777Z,4.63
2019-04-16T10:39:34.565Z,4.83
2019-04-16T10:42:34.330Z,5.47
2019-04-16T10:45:21.990Z,4.63
2019-04-16T10:48:13.959Z,4.70
2019-04-16T10:51:25.600Z,4.90
2019-04-16T10:54:19.922Z,5.37
2019-04-16T10:57:14.411Z,6.43
2019-04-16T11:00:09.176Z,5.00
2019-04-16T11:02:43.990Z,8.47
2019-04-16T11:05:35.499Z,5.20
2019-04-16T11:08:08.027Z,9.90
2019-04-16T11:10:38.191Z,7.33
2019-04-16T11:13:11.595Z,5.47
2019-04-16T11:15:49.937Z,5.33
2019-04-16T11:18:22.086Z,8.87
2019-04-16T11:20:52.740Z,5.70
2019-04-16T11:23:23.665Z,7.63
2019-04-16T11:25:57.732Z,10.47
2019-04-16T11:28:27.959Z,6.13
2019-04-16T11:31:00.282Z,5.73
2019-04-16T11:33:31.299Z,5.70
2019-04-16T11:36:16.396Z,6.07
2019-04-16T11:38:34.770Z,9.43
2019-04-16T11:41:10.775Z,8.47
2019-04-16T11:43:43.166Z,5.47
2019-04-16T11:46:13.349Z,5.40
2019-04-16T11:48:43.969Z,6.43
2019-04-16T11:51:14.003Z,8.83
2019-04-16T11:53:44.753Z,6.67
2019-04-16T11:56:14.561Z,5.40
2019-04-16T11:58:46.143Z,6.03
2019-04-16T12:01:35.416Z,6.00
2019-04-16T12:04:25.678Z,7.03
2019-04-16T12:07:13.883Z,5.63
2019-04-16T12:10:20.844Z,6.60
2019-04-16T12:13:09.323Z,6.63
2019-04-16T12:16:00.801Z,6.60
2019-04-16T12:18:45.119Z,6.20
2019-04-16T12:21:21.100Z,6.43
2019-04-16T12:24:22.239Z,7.50
2019-04-16T12:27:11.307Z,7.47
2019-04-16T12:30:06.130Z,11.93
2019-04-16T12:33:09.481Z,6.60
2019-04-16T12:35:45.502Z,14.13
2019-04-16T12:38:34.538Z,6.40
2019-04-16T12:41:15.484Z,7.00
2019-04-16T12:43:57.747Z,6.57
2019-04-16T12:46:46.897Z,11.13
2019-04-16T12:49:36.452Z,7.07
2019-04-16T12:52:43.723Z,9.37
2019-04-16T12:55:39.108Z,11.17
2019-04-16T12:58:19.987Z,12.53
2019-04-16T13:01:22.377Z,7.97
2019-04-16T13:04:09.429Z,7.70
2019-04-16T13:06:56.437Z,6.43
2019-04-16T13:09:34.790Z,13.67
2019-04-16T13:12:39.011Z,7.53
2019-04-16T13:15:46.245Z,6.50
2019-04-16T13:18:41.306Z,7.13
2019-04-16T13:21:16.901Z,11.20
2019-04-16T13:24:11.415Z,10.03
2019-04-16T13:26:51.638Z,9.23
2019-04-16T13:29:29.204Z,11.80
2019-04-16T13:31:57.100Z,10.00
2019-04-16T13:34:26.958Z,9.10
2019-04-16T13:36:59.672Z,9.03
2019-04-16T13:39:44.588Z,8.23
2019-04-16T13:42:14.570Z,10.37
2019-04-16T13:44:52.701Z,8.50
2019-04-16T13:47:23.173Z,8.57
2019-04-16T13:50:17.689Z,7.80
2019-04-16T13:52:52.043Z,8.13
2019-04-16T13:55:44.668Z,9.33
2019-04-16T13:58:33.654Z,9.97
2019-04-16T14:01:13.601Z,7.77
2019-04-16T14:03:45.070Z,7.63
2019-04-16T14:06:17.273Z,8.93
2019-04-16T14:08:47.786Z,10.13
2019-04-16T14:11:20.598Z,11.60
2019-04-16T14:13:50.550Z,11.07
2019-04-16T14:16:21.211Z,11.30
2019-04-16T14:18:52.977Z,11.13
2019-04-16T14:21:23.313Z,11.63
2019-04-16T14:23:53.046Z,9.97
2019-04-16T14:26:23.213Z,10.93
2019-04-16T14:28:56.743Z,10.13
2019-04-16T14:31:26.200Z,13.63
2019-04-16T14:34:07.696Z,12.53
2019-04-16T14:36:43.258Z,15.77
2019-04-16T14:39:33.047Z,15.13
2019-04-16T14:42:03.644Z,16.07
2019-04-16T14:44:39.346Z,11.53
2019-04-16T14:47:10.650Z,15.50
2019-04-16T14:49:40.518Z,16.90
2019-04-16T14:52:11.879Z,12.53
2019-04-16T14:55:05.818Z,17.10
2019-04-16T14:57:39.828Z,15.80
2019-04-16T15:00:42.832Z,16.93
2019-04-16T15:03:25.437Z,15.67
2019-04-16T15:06:02.114Z,16.17
2019-04-16T15:08:53.505Z,17.43
2019-04-16T15:11:54.242Z,18.90
2019-04-16T15:14:33.514Z,17.63
2019-04-16T15:17:13.417Z,19.50
2019-04-16T15:20:08.380Z,21.03
2019-04-16T15:22:56.143Z,18.97
2019-04-16T15:25:45.390Z,17.77
2019-04-16T15:28:37.155Z,15.73
2019-04-16T15:31:14.846Z,18.43
2019-04-16T15:34:46.826Z,23.93
2019-04-16T15:37:46.141Z,17.47
2019-04-16T15:40:27.230Z,15.37
2019-04-16T15:43:19.092Z,19.90
2019-04-16T15:46:25.296Z,21.33
2019-04-16T15:49:16.135Z,20.10
2019-04-16T15:51:51.473Z,17.07
2019-04-16T15:55:00.072Z,15.33
2019-04-16T15:57:47.508Z,15.23
2019-04-16T16:00:32.122Z,15.10
2019-04-16T16:03:20.959Z,15.57
2019-04-16T16:05:58.411Z,18.03
2019-04-16T16:08:46.455Z,16.50
2019-04-16T16:11:19.004Z,15.97
2019-04-16T16:13:49.534Z,16.57
2019-04-16T16:16:19.245Z,14.60
2019-04-16T16:18:51.937Z,19.63
2019-04-16T16:21:23.086Z,20.33
2019-04-16T16:23:53.207Z,18.93
2019-04-16T16:26:23.954Z,17.83
2019-04-16T16:28:56.802Z,18.00
2019-04-16T16:31:32.250Z,19.33
2019-04-16T16:34:01.560Z,23.57
2019-04-16T16:36:31.858Z,20.20
2019-04-16T16:39:02.008Z,22.60
2019-04-16T16:41:32.200Z,17.03
2019-04-16T16:44:02.975Z,17.80
2019-04-16T16:46:58.554Z,20.90
2019-04-16T16:49:29.317Z,21.10
2019-04-16T16:52:26.940Z,20.90
2019-04-16T16:55:11.836Z,23.13
2019-04-16T16:57:46.963Z,24.63
2019-04-16T17:00:47.910Z,22.50
2019-04-16T17:03:30.755Z,23.93
2019-04-16T17:06:01.432Z,21.80
2019-04-16T17:08:32.119Z,22.57
2019-04-16T17:11:15.529Z,21.20
2019-04-16T17:13:38.452Z,24.80
2019-04-16T17:16:14.769Z,19.97
2019-04-16T17:18:46.886Z,20.50
2019-04-16T17:21:23.383Z,19.40
2019-04-16T17:24:07.867Z,20.07
2019-04-16T17:26:47.018Z,21.93
2019-04-16T17:29:17.414Z,23.20
2019-04-16T17:31:47.418Z,22.57
2019-04-16T17:34:21.050Z,20.27
2019-04-16T17:36:53.603Z,19.83
2019-04-16T17:40:05.134Z,21.07
2019-04-16T17:42:43.873Z,21.83
2019-04-16T17:45:41.757Z,22.27
2019-04-16T17:51:43.404Z,20.20
2019-04-16T17:54:47.735Z,19.67
2019-04-16T17:57:44.902Z,22.60
2019-04-16T18:03:55.394Z,20.67
2019-04-16T18:06:59.986Z,23.80
2019-04-16T18:09:44.022Z,19.67
2019-04-16T18:12:36.212Z,19.80
2019-04-16T18:15:24.299Z,20.57
2019-04-16T18:21:49.223Z,21.20
2019-04-16T18:24:32.753Z,20.47
2019-04-16T18:27:20.489Z,18.17
2019-04-16T18:30:08.760Z,20.80
2019-04-16T18:33:09.286Z,18.20
2019-04-16T18:35:51.204Z,22.40
2019-04-16T18:38:30.622Z,24.73
2019-04-16T18:41:19.403Z,18.10
2019-04-16T18:44:14.181Z,17.57
2019-04-16T18:47:05.002Z,14.43
2019-04-16T18:49:34.544Z,17.13
2019-04-16T18:52:06.389Z,16.60
2019-04-16T18:54:37.074Z,21.50
2019-04-16T18:57:06.663Z,19.43
2019-04-16T18:59:36.995Z,19.60
2019-04-16T19:02:09.583Z,18.37
2019-04-16T19:04:39.341Z,24.97
2019-04-16T19:07:09.706Z,25.63
2019-04-16T19:09:40.669Z,31.20
2019-04-16T19:12:11.076Z,32.33
2019-04-16T19:14:40.514Z,39.70
2019-04-16T19:17:10.682Z,36.03
2019-04-16T19:19:44.598Z,41.17
2019-04-16T19:22:12.253Z,45.90
2019-04-16T19:24:42.482Z,43.07
2019-04-16T19:27:12.949Z,43.10
2019-04-16T19:29:45.445Z,42.80
2019-04-16T19:32:15.107Z,39.43
2019-04-16T19:34:44.925Z,46.93
2019-04-16T19:37:14.907Z,40.63
2019-04-16T19:39:46.764Z,34.57
2019-04-16T19:42:16.581Z,38.07
2019-04-16T19:44:46.724Z,32.93
2019-04-16T19:47:16.871Z,31.90
2019-04-16T19:49:46.879Z,25.73
2019-04-16T19:52:17.360Z,30.07
2019-04-16T19:54:48.690Z,28.53
2019-04-16T19:57:19.505Z,30.40
2019-04-16T19:59:49.662Z,25.40
2019-04-16T20:02:20.988Z,30.90
2019-04-16T20:04:51.503Z,27.10
2019-04-16T20:07:21.987Z,29.97
2019-04-16T20:09:51.530Z,25.90
2019-04-16T20:12:21.896Z,30.23
2019-04-16T20:14:52.263Z,24.03
2019-04-16T20:17:22.284Z,28.40
2019-04-16T20:19:58.818Z,25.20
2019-04-16T20:22:31.285Z,25.63
2019-04-16T20:25:01.582Z,26.50
2019-04-16T20:27:31.475Z,26.07
2019-04-16T20:30:01.790Z,25.60
2019-04-16T20:32:34.377Z,26.23
2019-04-16T20:35:03.137Z,22.93
2019-04-16T20:37:33.592Z,26.60
2019-04-16T20:40:04.035Z,21.97
2019-04-16T20:42:34.738Z,21.80
2019-04-16T20:45:06.947Z,23.60
2019-04-16T20:47:39.942Z,22.03
2019-04-16T20:50:09.512Z,24.97
2019-04-16T20:52:39.543Z,25.30
2019-04-16T20:55:15.712Z,28.13
2019-04-16T20:57:43.555Z,23.63
2019-04-16T21:00:15.409Z,21.40
2019-04-16T21:02:48.250Z,23.40
2019-04-16T21:05:22.220Z,21.47
2019-04-16T21:07:49.139Z,23.97
2019-04-16T21:10:19.750Z,23.53
2019-04-16T21:12:50.103Z,21.93
2019-04-16T21:15:20.045Z,22.00
2019-04-16T21:17:50.672Z,24.00
2019-04-16T21:20:20.966Z,24.03
2019-04-16T21:22:53.499Z,23.80
2019-04-16T21:25:23.679Z,24.70
2019-04-16T21:28:02.953Z,27.03
2019-04-16T21:30:32.508Z,25.67
2019-04-16T21:33:11.014Z,21.30
2019-04-16T21:35:43.707Z,21.50
2019-04-16T21:38:23.482Z,22.83
2019-04-16T21:40:56.313Z,23.00
2019-04-16T21:43:24.779Z,23.70
2019-04-16T21:45:57.257Z,22.67
2019-04-16T21:48:27.834Z,23.90
2019-04-16T21:50:57.509Z,22.17
2019-04-16T21:53:27.912Z,25.10
2019-04-16T21:55:58.905Z,22.23
2019-04-16T21:58:29.063Z,25.17
2019-04-16T22:01:15.124Z,20.13
2019-04-16T22:03:47.527Z,24.90
2019-04-16T22:06:20.333Z,23.60
2019-04-16T22:08:49.636Z,24.63
2019-04-16T22:11:20.487Z,28.13
2019-04-16T22:13:51.359Z,22.73
2019-04-16T22:16:21.175Z,25.03
2019-04-16T22:18:51.545Z,27.87
2019-04-16T22:21:22.061Z,25.27
2019-04-16T22:23:54.323Z,27.03
2019-04-16T22:26:25.445Z,27.13
2019-04-16T22:28:57.262Z,22.73
2019-04-16T22:31:27.149Z,25.70
2019-04-16T22:33:58.829Z,21.00
2019-04-16T22:36:30.652Z,22.20
2019-04-16T22:39:08.195Z,24.63
2019-04-16T22:41:43.525Z,25.50
2019-04-16T22:44:41.115Z,23.97
2019-04-16T22:47:13.895Z,23.77
2019-04-16T22:49:46.094Z,22.87
2019-04-16T22:52:15.901Z,24.73
2019-04-16T22:54:52.169Z,25.40
2019-04-16T22:57:19.932Z,21.30
2019-04-16T22:59:50.765Z,21.73
2019-04-16T23:02:25.908Z,21.53
2019-04-16T23:04:58.369Z,19.93
2019-04-16T23:07:27.714Z,20.83
2019-04-16T23:09:58.122Z,22.70
2019-04-16T23:12:28.361Z,17.07
2019-04-16T23:14:58.931Z,22.50
2019-04-16T23:17:29.138Z,20.20
2019-04-16T23:19:59.026Z,21.30
2019-04-16T23:22:29.217Z,21.57
2019-04-16T23:25:00.703Z,18.83
2019-04-16T23:27:30.552Z,23.17
2019-04-16T23:30:00.445Z,20.77
2019-04-16T23:32:32.183Z,18.17
2019-04-16T23:35:09.183Z,18.40
2019-04-16T23:37:35.884Z,23.13
2019-04-16T23:40:07.176Z,18.73
2019-04-16T23:42:40.569Z,20.87
2019-04-16T23:45:31.478Z,17.70
2019-04-16T23:48:18.011Z,18.70
2019-04-16T23:50:58.479Z,15.70
2019-04-16T23:53:49.848Z,19.83
2019-04-16T23:56:27.840Z,20.13
2019-04-16T23:59:16.292Z,23.07
